Time,TemperatureF,DewpointF,PressureIn,WindDirection,WindDirectionDegrees,WindSpeedMPH,WindSpeedGustMPH,Humidity,HourlyPrecipIn,Conditions,Clouds,dailyrainin,SoftwareType,DateUTC
2013-02-02 00:01:00,3.7,-5.4,30.06,ENE,68,0.0,0.0,65,0.00,,---,0.00,VWS V14.01,2013-02-02 06:01:00,
2013-02-02 00:06:00,3.7,-5.4,30.06,ENE,68,0.0,0.0,65,0.00,,---,0.00,VWS V14.01,2013-02-02 06:06:00,
2013-02-02 00:11:00,3.7,-5.4,30.09,NE,45,1.6,2.5,65,0.00,,---,0.00,VWS V14.01,2013-02-02 06:11:00,
2013-02-02 00:16:00,3.7,-5.4,30.09,ENE,68,1.1,1.1,65,0.00,,---,0.00,VWS V14.01,2013-02-02 06:16:00,
2013-02-02 00:21:00,3.9,-5.2,30.09,ENE,68,0.0,0.0,65,0.00,,---,0.00,VWS V14.01,2013-02-02 06:21:00,
2013-02-02 00:26:00,4.1,-5.0,30.06,ENE,68,2.2,2.2,65,0.00,,---,0.00,VWS V14.01,2013-02-02 06:26:00,
2013-02-02 00:31:00,4.1,-5.0,30.06,ENE,68,1.6,1.6,65,0.00,,---,0.00,VWS V14.01,2013-02-02 06:31:00,
2013-02-02 00:36:00,4.1,-5.0,30.06,ENE,68,0.0,0.0,65,0.00,,---,0.00,VWS V14.01,2013-02-02 06:36:00,
2013-02-02 00:41:00,4.1,-5.0,30.06,NNE,22,1.1,2.0,65,0.00,,---,0.00,VWS V14.01,2013-02-02 06:41:00,
2013-02-02 00:46:00,4.1,-5.0,30.06,NNE,22,1.1,2.2,65,0.00,,---,0.00,VWS V14.01,2013-02-02 06:46:00,
2013-02-02 00:51:00,4.1,-5.0,30.06,NNE,22,2.0,2.0,65,0.00,,---,0.00,VWS V14.01,2013-02-02 06:51:00,
2013-02-02 00:56:00,4.1,-5.0,30.06,NNE,22,0.0,0.9,65,0.00,,---,0.00,VWS V14.01,2013-02-02 06:56:00,
2013-02-02 01:01:00,4.1,-5.0,30.06,NNE,22,2.2,2.2,65,0.00,,---,0.00,VWS V14.01,2013-02-02 07:01:00,
2013-02-02 01:06:00,4.1,-5.0,30.06,ENE,68,0.0,0.0,65,0.00,,---,0.00,VWS V14.01,2013-02-02 07:06:00,
2013-02-02 01:11:00,4.1,-5.0,30.06,North,0,2.0,2.0,65,0.00,,---,0.00,VWS V14.01,2013-02-02 07:11:00,
2013-02-02 01:16:00,3.9,-5.2,30.06,North,0,1.3,1.6,65,0.00,,---,0.00,VWS V14.01,2013-02-02 07:16:00,
2013-02-02 01:21:00,3.7,-5.4,30.06,North,0,1.3,2.9,65,0.00,,---,0.00,VWS V14.01,2013-02-02 07:21:00,
2013-02-02 01:26:00,3.7,-5.4,30.06,NNE,22,0.0,2.0,65,0.00,,---,0.00,VWS V14.01,2013-02-02 07:26:00,
2013-02-02 01:31:00,3.7,-5.4,30.06,North,0,0.0,1.1,65,0.00,,---,0.00,VWS V14.01,2013-02-02 07:31:00,
2013-02-02 01:36:00,3.7,-5.4,30.06,NNE,22,0.0,1.3,65,0.00,,---,0.00,VWS V14.01,2013-02-02 07:36:00,
2013-02-02 01:41:00,3.7,-5.4,30.06,NE,45,1.1,1.6,65,0.00,,---,0.00,VWS V14.01,2013-02-02 07:41:00,
2013-02-02 01:46:00,3.4,-5.7,30.06,NNE,22,1.3,1.6,65,0.00,,---,0.00,VWS V14.01,2013-02-02 07:46:00,
2013-02-02 01:51:00,3.4,-5.7,30.06,NNW,338,3.1,3.1,65,0.00,,---,0.00,VWS V14.01,2013-02-02 07:51:00,
2013-02-02 01:56:00,3.4,-5.7,30.09,NNE,22,2.7,2.7,65,0.00,,---,0.00,VWS V14.01,2013-02-02 07:56:00,
2013-02-02 02:01:00,3.2,-5.9,30.09,North,0,0.0,2.0,65,0.00,,---,0.00,VWS V14.01,2013-02-02 08:01:00,
2013-02-02 02:06:00,3.2,-5.9,30.09,NNE,22,1.1,2.0,65,0.00,,---,0.00,VWS V14.01,2013-02-02 08:06:00,
2013-02-02 02:11:00,3.2,-5.9,30.09,North,0,2.2,2.2,65,0.00,,---,0.00,VWS V14.01,2013-02-02 08:11:00,
2013-02-02 02:16:00,3.2,-5.9,30.09,North,0,2.7,2.7,65,0.00,,---,0.00,VWS V14.01,2013-02-02 08:16:00,
2013-02-02 02:21:00,3.2,-5.9,30.09,NNW,338,0.0,0.0,65,0.00,,---,0.00,VWS V14.01,2013-02-02 08:21:00,
2013-02-02 02:26:00,3.2,-5.9,30.09,NNW,338,2.2,2.7,65,0.00,,---,0.00,VWS V14.01,2013-02-02 08:26:00,
2013-02-02 02:31:00,3.2,-5.9,30.09,North,0,1.1,2.2,65,0.00,,---,0.00,VWS V14.01,2013-02-02 08:31:00,
2013-02-02 02:36:00,3.0,-6.1,30.09,North,0,0.0,1.3,65,0.00,,---,0.00,VWS V14.01,2013-02-02 08:36:00,
2013-02-02 02:41:00,3.0,-6.1,30.09,NW,315,2.7,2.7,65,0.00,,---,0.00,VWS V14.01,2013-02-02 08:41:00,
2013-02-02 02:46:00,3.0,-6.1,30.09,North,0,1.3,1.3,65,0.00,,---,0.00,VWS V14.01,2013-02-02 08:46:00,
2013-02-02 02:51:00,3.0,-6.1,30.09,NNW,338,2.7,2.7,65,0.00,,---,0.00,VWS V14.01,2013-02-02 08:51:00,
2013-02-02 02:56:00,3.0,-6.1,30.09,NNW,338,1.6,1.6,65,0.00,,---,0.00,VWS V14.01,2013-02-02 08:56:00,
2013-02-02 03:01:00,2.8,-6.2,30.09,NNW,338,1.3,2.0,65,0.00,,---,0.00,VWS V14.01,2013-02-02 09:01:00,
2013-02-02 03:06:00,2.8,-6.2,30.09,NNW,338,2.5,3.1,65,0.00,,---,0.00,VWS V14.01,2013-02-02 09:06:00,
2013-02-02 03:11:00,2.8,-6.2,30.09,NW,315,1.6,1.6,65,0.00,,---,0.00,VWS V14.01,2013-02-02 09:11:00,
2013-02-02 03:16:00,2.8,-6.2,30.09,NE,45,1.6,2.2,65,0.00,,---,0.00,VWS V14.01,2013-02-02 09:16:00,
2013-02-02 03:21:00,2.8,-6.2,30.09,NW,315,4.3,4.3,65,0.00,,---,0.00,VWS V14.01,2013-02-02 09:21:00,
2013-02-02 03:26:00,2.8,-6.2,30.09,WSW,248,2.0,2.5,65,0.00,,---,0.00,VWS V14.01,2013-02-02 09:26:00,
2013-02-02 03:31:00,2.7,-6.4,30.09,NNE,22,2.0,2.7,65,0.00,,---,0.00,VWS V14.01,2013-02-02 09:31:00,
2013-02-02 03:36:00,2.7,-6.4,30.09,NNW,338,3.8,3.8,65,0.00,,---,0.00,VWS V14.01,2013-02-02 09:36:00,
2013-02-02 03:41:00,2.5,-6.6,30.09,North,0,3.4,3.4,65,0.00,,---,0.00,VWS V14.01,2013-02-02 09:41:00,
2013-02-02 03:46:00,2.5,-6.6,30.09,NNE,22,3.4,5.4,65,0.00,,---,0.00,VWS V14.01,2013-02-02 09:46:00,
2013-02-02 03:51:00,2.5,-6.6,30.09,NNE,22,0.0,4.0,65,0.00,,---,0.00,VWS V14.01,2013-02-02 09:51:00,
2013-02-02 03:56:00,2.5,-6.6,30.12,NNW,338,1.1,3.1,65,0.00,,---,0.00,VWS V14.01,2013-02-02 09:56:00,
2013-02-02 04:01:00,2.5,-6.6,30.12,North,0,1.6,2.7,65,0.00,,---,0.00,VWS V14.01,2013-02-02 10:01:00,
2013-02-02 04:06:00,2.5,-6.6,30.12,NNW,338,2.9,3.1,65,0.00,,---,0.00,VWS V14.01,2013-02-02 10:06:00,
2013-02-02 04:11:00,2.1,-6.9,30.12,NNW,338,3.1,3.1,65,0.00,,---,0.00,VWS V14.01,2013-02-02 10:11:00,
2013-02-02 04:16:00,2.1,-6.9,30.12,NNW,338,3.1,3.1,65,0.00,,---,0.00,VWS V14.01,2013-02-02 10:16:00,
2013-02-02 04:21:00,1.9,-7.1,30.12,North,0,6.0,6.0,65,0.00,,---,0.00,VWS V14.01,2013-02-02 10:21:00,
2013-02-02 04:26:00,1.9,-7.1,30.12,North,0,1.3,3.4,65,0.00,,---,0.00,VWS V14.01,2013-02-02 10:26:00,
2013-02-02 04:31:00,1.9,-7.1,30.12,North,0,2.5,2.5,65,0.00,,---,0.00,VWS V14.01,2013-02-02 10:31:00,
2013-02-02 04:36:00,1.9,-7.1,30.12,NNW,338,2.0,3.1,65,0.00,,---,0.00,VWS V14.01,2013-02-02 10:36:00,
2013-02-02 04:41:00,1.9,-7.1,30.12,WNW,292,2.0,2.7,65,0.00,,---,0.00,VWS V14.01,2013-02-02 10:41:00,
2013-02-02 04:46:00,1.8,-7.3,30.12,NW,315,4.7,4.7,65,0.00,,---,0.00,VWS V14.01,2013-02-02 10:46:00,
2013-02-02 04:51:00,1.8,-7.3,30.12,NNE,22,4.0,4.0,65,0.00,,---,0.00,VWS V14.01,2013-02-02 10:51:00,
2013-02-02 04:56:00,1.6,-7.4,30.12,NNW,338,2.5,4.3,65,0.00,,---,0.00,VWS V14.01,2013-02-02 10:56:00,
2013-02-02 05:01:00,1.6,-7.4,30.12,NW,315,2.0,2.5,65,0.00,,---,0.00,VWS V14.01,2013-02-02 11:01:00,
2013-02-02 05:06:00,1.6,-7.4,30.12,ENE,68,3.4,3.6,65,0.00,,---,0.00,VWS V14.01,2013-02-02 11:06:00,
2013-02-02 05:11:00,1.6,-7.4,30.12,North,0,2.5,2.5,65,0.00,,---,0.00,VWS V14.01,2013-02-02 11:11:00,
2013-02-02 05:16:00,1.6,-7.4,30.12,NE,45,2.0,2.5,65,0.00,,---,0.00,VWS V14.01,2013-02-02 11:16:00,
2013-02-02 05:21:00,1.6,-7.4,30.12,North,0,3.4,3.4,65,0.00,,---,0.00,VWS V14.01,2013-02-02 11:21:00,
2013-02-02 05:26:00,1.8,-7.3,30.15,NNW,338,2.9,3.8,65,0.00,,---,0.00,VWS V14.01,2013-02-02 11:26:00,
2013-02-02 05:31:00,1.6,-7.4,30.15,North,0,3.4,3.8,65,0.00,,---,0.00,VWS V14.01,2013-02-02 11:31:00,
2013-02-02 05:36:00,1.6,-7.4,30.15,North,0,2.0,3.6,65,0.00,,---,0.00,VWS V14.01,2013-02-02 11:36:00,
2013-02-02 05:41:00,1.6,-7.4,30.15,NNE,22,1.1,2.0,65,0.00,,---,0.00,VWS V14.01,2013-02-02 11:41:00,
2013-02-02 05:46:00,1.8,-7.3,30.15,NNE,22,2.5,3.6,65,0.00,,---,0.00,VWS V14.01,2013-02-02 11:46:00,
2013-02-02 05:51:00,1.8,-7.3,30.15,NNW,338,1.6,2.5,65,0.00,,---,0.00,VWS V14.01,2013-02-02 11:51:00,
2013-02-02 05:56:00,1.8,-7.3,30.15,NNW,338,2.7,2.7,65,0.00,,---,0.00,VWS V14.01,2013-02-02 11:56:00,
2013-02-02 06:01:00,1.8,-7.3,30.15,NNW,338,2.0,3.1,65,0.00,,---,0.00,VWS V14.01,2013-02-02 12:01:00,
2013-02-02 06:06:00,1.8,-7.3,30.15,NNE,22,1.1,2.0,65,0.00,,---,0.00,VWS V14.01,2013-02-02 12:06:00,
2013-02-02 06:11:00,1.8,-7.3,30.15,NNW,338,2.5,2.5,65,0.00,,---,0.00,VWS V14.01,2013-02-02 12:11:00,
2013-02-02 06:16:00,1.8,-7.3,30.15,NNE,22,1.3,2.5,65,0.00,,---,0.00,VWS V14.01,2013-02-02 12:16:00,
2013-02-02 06:21:00,1.6,-7.4,30.15,NW,315,2.2,3.1,65,0.00,,---,0.00,VWS V14.01,2013-02-02 12:21:00,
2013-02-02 06:26:00,1.6,-7.4,30.15,SW,225,1.6,2.5,65,0.00,,---,0.00,VWS V14.01,2013-02-02 12:26:00,
2013-02-02 06:31:00,1.6,-7.4,30.15,NNW,338,1.6,1.6,65,0.00,,---,0.00,VWS V14.01,2013-02-02 12:31:00,
2013-02-02 06:36:00,1.6,-7.4,30.15,NNW,338,1.3,2.7,65,0.00,,---,0.00,VWS V14.01,2013-02-02 12:36:00,
2013-02-02 06:41:00,1.6,-7.4,30.15,North,0,1.1,2.7,65,0.00,,---,0.00,VWS V14.01,2013-02-02 12:41:00,
2013-02-02 06:46:00,1.6,-7.4,30.15,NW,315,1.6,2.5,65,0.00,,---,0.00,VWS V14.01,2013-02-02 12:46:00,
2013-02-02 06:51:00,1.6,-7.4,30.15,NE,45,1.1,2.7,65,0.00,,---,0.00,VWS V14.01,2013-02-02 12:51:00,
2013-02-02 06:57:00,1.6,-7.4,30.15,NNW,338,1.3,1.3,65,0.00,,---,0.00,VWS V14.01,2013-02-02 12:57:00,
2013-02-02 07:01:00,1.6,-7.4,30.15,North,0,2.0,2.0,65,0.00,,---,0.00,VWS V14.01,2013-02-02 13:01:00,
2013-02-02 07:06:00,1.4,-7.6,30.15,NNE,22,2.0,2.5,65,0.00,,---,0.00,VWS V14.01,2013-02-02 13:06:00,
2013-02-02 07:11:00,1.4,-7.6,30.15,NW,315,1.1,1.1,65,0.00,,---,0.00,VWS V14.01,2013-02-02 13:11:00,
2013-02-02 07:16:00,1.2,-7.8,30.15,NNW,338,0.0,1.1,65,0.00,,---,0.00,VWS V14.01,2013-02-02 13:16:00,
2013-02-02 07:21:00,1.2,-7.8,30.15,NNE,22,1.3,2.2,65,0.00,,---,0.00,VWS V14.01,2013-02-02 13:21:00,
2013-02-02 07:26:00,1.2,-7.8,30.15,NE,45,2.9,3.1,65,0.00,,---,0.00,VWS V14.01,2013-02-02 13:26:00,
2013-02-02 07:31:00,1.0,-8.0,30.15,North,0,2.7,2.7,65,0.00,,---,0.00,VWS V14.01,2013-02-02 13:31:00,
2013-02-02 07:36:00,0.9,-8.1,30.15,WNW,292,1.6,2.9,65,0.00,,---,0.00,VWS V14.01,2013-02-02 13:36:00,
2013-02-02 07:41:00,0.7,-8.3,30.15,NNW,338,1.3,3.6,65,0.00,,---,0.00,VWS V14.01,2013-02-02 13:41:00,
2013-02-02 07:46:00,0.7,-8.3,30.15,NNE,22,1.3,2.7,65,0.00,,---,0.00,VWS V14.01,2013-02-02 13:46:00,
2013-02-02 07:51:00,0.7,-8.3,30.15,NNW,338,1.3,1.3,65,0.00,,---,0.00,VWS V14.01,2013-02-02 13:51:00,
2013-02-02 07:56:00,0.7,-8.3,30.18,NNE,22,1.1,2.5,65,0.00,,---,0.00,VWS V14.01,2013-02-02 13:56:00,
2013-02-02 08:01:00,0.7,-8.3,30.18,NNE,22,1.3,1.3,65,0.00,,---,0.00,VWS V14.01,2013-02-02 14:01:00,
2013-02-02 08:07:00,1.0,-8.0,30.18,NNE,22,1.1,1.1,65,0.00,,---,0.00,VWS V14.01,2013-02-02 14:07:00,
2013-02-02 08:11:00,1.0,-8.0,30.18,NW,315,1.6,1.6,65,0.00,,---,0.00,VWS V14.01,2013-02-02 14:11:00,
2013-02-02 08:16:00,1.0,-8.0,30.18,NNW,338,0.0,0.0,65,0.00,,---,0.00,VWS V14.01,2013-02-02 14:16:00,
2013-02-02 08:21:00,1.0,-8.0,30.18,North,0,1.6,1.6,65,0.00,,---,0.00,VWS V14.01,2013-02-02 14:21:00,
2013-02-02 08:26:00,0.9,-8.1,30.18,NNW,338,0.0,0.0,65,0.00,,---,0.00,VWS V14.01,2013-02-02 14:26:00,
2013-02-02 08:31:00,1.0,-8.0,30.18,East,90,1.6,3.8,65,0.00,,---,0.00,VWS V14.01,2013-02-02 14:31:00,
2013-02-02 08:36:00,1.2,-7.8,30.18,West,270,2.0,2.0,65,0.00,,---,0.00,VWS V14.01,2013-02-02 14:36:00,
2013-02-02 08:42:00,1.6,-7.4,30.18,NNW,338,0.0,0.0,65,0.00,,---,0.00,VWS V14.01,2013-02-02 14:42:00,
2013-02-02 08:47:00,1.8,-7.3,30.18,NNW,338,0.0,1.6,65,0.00,,---,0.00,VWS V14.01,2013-02-02 14:47:00,
2013-02-02 08:52:00,1.8,-7.3,30.18,NW,315,1.6,1.6,65,0.00,,---,0.00,VWS V14.01,2013-02-02 14:52:00,
2013-02-02 08:57:00,1.8,-7.3,30.18,North,0,1.3,1.3,65,0.00,,---,0.00,VWS V14.01,2013-02-02 14:57:00,
2013-02-02 09:02:00,1.9,-7.1,30.18,NNW,338,0.0,0.0,65,0.00,,---,0.00,VWS V14.01,2013-02-02 15:02:00,
2013-02-02 09:07:00,2.1,-6.9,30.18,North,0,0.0,0.0,65,0.00,,---,0.00,VWS V14.01,2013-02-02 15:07:00,
2013-02-02 09:12:00,3.0,-6.1,30.18,West,270,1.3,1.6,65,0.00,,---,0.00,VWS V14.01,2013-02-02 15:12:00,
2013-02-02 09:17:00,3.7,-5.4,30.18,NNE,22,1.6,1.6,65,0.00,,---,0.00,VWS V14.01,2013-02-02 15:17:00,
2013-02-02 09:22:00,3.4,-5.7,30.18,WNW,292,2.9,2.9,65,0.00,,---,0.00,VWS V14.01,2013-02-02 15:22:00,
2013-02-02 09:27:00,4.6,-4.5,30.18,NE,45,2.5,2.5,65,0.00,,---,0.00,VWS V14.01,2013-02-02 15:27:00,
2013-02-02 09:32:00,4.8,-4.3,30.18,North,0,2.9,2.9,65,0.00,,---,0.00,VWS V14.01,2013-02-02 15:32:00,
2013-02-02 09:37:00,5.4,-3.8,30.18,WNW,292,1.6,1.6,65,0.00,,---,0.00,VWS V14.01,2013-02-02 15:37:00,
2013-02-02 09:42:00,5.0,-4.2,30.18,WNW,292,2.5,2.5,65,0.00,,---,0.00,VWS V14.01,2013-02-02 15:42:00,
2013-02-02 09:47:00,5.4,-3.8,30.18,NNE,22,2.0,2.0,65,0.00,,---,0.00,VWS V14.01,2013-02-02 15:47:00,
2013-02-02 09:52:00,5.2,-4.0,30.18,North,0,1.6,2.2,65,0.00,,---,0.00,VWS V14.01,2013-02-02 15:52:00,
2013-02-02 09:57:00,5.5,-3.7,30.18,NE,45,2.9,3.1,65,0.00,,---,0.00,VWS V14.01,2013-02-02 15:57:00,
2013-02-02 10:02:00,5.5,-3.7,30.18,NNE,22,2.2,2.9,65,0.00,,---,0.00,VWS V14.01,2013-02-02 16:02:00,
2013-02-02 10:07:00,5.5,-3.7,30.18,NNW,338,2.9,2.9,65,0.00,,---,0.00,VWS V14.01,2013-02-02 16:07:00,
2013-02-02 10:12:00,5.5,-3.7,30.18,NNW,338,3.8,3.8,65,0.00,,---,0.00,VWS V14.01,2013-02-02 16:12:00,
2013-02-02 10:17:00,5.9,-3.3,30.18,NNW,338,2.0,2.2,65,0.00,,---,0.00,VWS V14.01,2013-02-02 16:17:00,
2013-02-02 10:22:00,6.4,-2.8,30.18,ENE,68,0.0,0.9,65,0.00,,---,0.00,VWS V14.01,2013-02-02 16:22:00,
2013-02-02 10:27:00,6.4,-2.8,30.18,WNW,292,2.0,2.5,65,0.00,,---,0.00,VWS V14.01,2013-02-02 16:27:00,
2013-02-02 10:32:00,6.4,-2.8,30.18,SE,135,0.0,0.0,65,0.00,,---,0.00,VWS V14.01,2013-02-02 16:32:00,
2013-02-02 10:37:00,6.3,-3.0,30.18,SSW,202,0.9,1.1,65,0.00,,---,0.00,VWS V14.01,2013-02-02 16:37:00,
2013-02-02 10:42:00,6.8,-2.5,30.18,West,270,0.0,2.0,65,0.00,,---,0.00,VWS V14.01,2013-02-02 16:42:00,
2013-02-02 10:47:00,7.2,-2.1,30.18,ENE,68,2.2,2.2,65,0.00,,---,0.00,VWS V14.01,2013-02-02 16:47:00,
2013-02-02 10:52:00,7.5,-1.8,30.18,NNW,338,0.0,1.6,65,0.00,,---,0.00,VWS V14.01,2013-02-02 16:52:00,
2013-02-02 10:57:00,7.5,-1.8,30.18,NNE,22,2.5,2.5,65,0.00,,---,0.00,VWS V14.01,2013-02-02 16:57:00,
2013-02-02 11:02:00,7.5,-1.8,30.18,NNE,22,0.0,0.0,65,0.00,,---,0.00,VWS V14.01,2013-02-02 17:02:00,
2013-02-02 11:07:00,7.7,-1.6,30.18,NNW,338,0.0,0.0,65,0.00,,---,0.00,VWS V14.01,2013-02-02 17:07:00,
2013-02-02 11:12:00,8.2,-1.1,30.18,North,0,0.0,0.0,65,0.00,,---,0.00,VWS V14.01,2013-02-02 17:12:00,
2013-02-02 11:17:00,8.2,-1.1,30.18,NE,45,1.6,2.5,65,0.00,,---,0.00,VWS V14.01,2013-02-02 17:17:00,
2013-02-02 11:22:00,8.8,-0.6,30.18,ENE,68,1.1,2.5,65,0.00,,---,0.00,VWS V14.01,2013-02-02 17:22:00,
2013-02-02 11:27:00,9.1,-0.2,30.18,NW,315,2.2,2.7,65,0.00,,---,0.00,VWS V14.01,2013-02-02 17:27:00,
2013-02-02 11:32:00,9.1,-0.2,30.18,NW,315,0.0,2.2,65,0.00,,---,0.00,VWS V14.01,2013-02-02 17:32:00,
2013-02-02 11:37:00,9.3,-0.1,30.18,East,90,1.3,1.3,65,0.00,,---,0.00,VWS V14.01,2013-02-02 17:37:00,
2013-02-02 11:42:00,9.1,-0.2,30.18,WNW,292,2.7,2.7,65,0.00,,---,0.00,VWS V14.01,2013-02-02 17:42:00,
2013-02-02 11:47:00,9.1,-0.2,30.18,WNW,292,0.9,2.2,65,0.00,,---,0.00,VWS V14.01,2013-02-02 17:47:00,
2013-02-02 11:52:00,9.7,0.3,30.18,SSE,158,1.6,1.6,65,0.00,,---,0.00,VWS V14.01,2013-02-02 17:52:00,
2013-02-02 11:57:00,9.9,0.5,30.15,SSW,202,2.0,2.0,65,0.00,,---,0.00,VWS V14.01,2013-02-02 17:57:00,
2013-02-02 12:02:00,10.0,0.6,30.15,South,180,0.0,1.3,65,0.00,,---,0.00,VWS V14.01,2013-02-02 18:02:00,
2013-02-02 12:07:00,10.0,0.6,30.15,SSE,158,1.3,1.3,65,0.00,,---,0.00,VWS V14.01,2013-02-02 18:07:00,
2013-02-02 12:12:00,10.0,0.6,30.15,SW,225,0.9,2.2,65,0.00,,---,0.00,VWS V14.01,2013-02-02 18:12:00,
2013-02-02 12:17:00,10.2,0.8,30.15,SSE,158,0.0,2.2,65,0.00,,---,0.00,VWS V14.01,2013-02-02 18:17:00,
2013-02-02 12:22:00,10.6,1.1,30.15,NW,315,1.6,1.6,65,0.00,,---,0.00,VWS V14.01,2013-02-02 18:22:00,
2013-02-02 12:27:00,10.8,1.3,30.15,ENE,68,0.9,1.3,65,0.00,,---,0.00,VWS V14.01,2013-02-02 18:27:00,
2013-02-02 12:32:00,10.8,1.3,30.15,West,270,4.7,4.7,65,0.00,,---,0.00,VWS V14.01,2013-02-02 18:32:00,
2013-02-02 12:37:00,10.6,1.1,30.15,WSW,248,2.7,2.7,65,0.00,,---,0.00,VWS V14.01,2013-02-02 18:37:00,
2013-02-02 12:42:00,10.4,1.0,30.15,South,180,2.0,2.5,65,0.00,,---,0.00,VWS V14.01,2013-02-02 18:42:00,
2013-02-02 12:47:00,11.1,1.7,30.15,NNW,338,3.4,3.4,65,0.00,,---,0.00,VWS V14.01,2013-02-02 18:47:00,
2013-02-02 12:52:00,10.4,1.0,30.15,ESE,112,0.0,1.1,65,0.00,,---,0.00,VWS V14.01,2013-02-02 18:52:00,
2013-02-02 12:57:00,10.6,1.1,30.12,WSW,248,2.7,2.9,65,0.00,,---,0.00,VWS V14.01,2013-02-02 18:57:00,
2013-02-02 13:02:00,11.3,1.8,30.12,West,270,4.3,4.3,65,0.00,,---,0.00,VWS V14.01,2013-02-02 19:02:00,
2013-02-02 13:07:00,11.5,2.0,30.12,WSW,248,2.2,3.6,65,0.00,,---,0.00,VWS V14.01,2013-02-02 19:07:00,
2013-02-02 13:12:00,12.2,2.7,30.12,WNW,292,3.1,3.6,65,0.00,,---,0.00,VWS V14.01,2013-02-02 19:12:00,
2013-02-02 13:17:00,12.4,2.9,30.12,SSW,202,0.0,1.3,65,0.00,,---,0.00,VWS V14.01,2013-02-02 19:17:00,
2013-02-02 13:22:00,12.2,2.7,30.12,WNW,292,2.5,2.5,65,0.00,,---,0.00,VWS V14.01,2013-02-02 19:22:00,
2013-02-02 13:27:00,12.4,2.9,30.12,South,180,1.6,1.6,65,0.00,,---,0.00,VWS V14.01,2013-02-02 19:27:00,
2013-02-02 13:32:00,12.4,2.9,30.12,East,90,0.9,1.6,65,0.00,,---,0.00,VWS V14.01,2013-02-02 19:32:00,
2013-02-02 13:37:00,12.9,3.4,30.12,South,180,2.2,2.2,65,0.00,,---,0.00,VWS V14.01,2013-02-02 19:37:00,
2013-02-02 13:42:00,12.9,3.4,30.12,SE,135,2.0,2.0,65,0.00,,---,0.00,VWS V14.01,2013-02-02 19:42:00,
2013-02-02 13:47:00,13.3,3.7,30.12,SSW,202,2.9,3.4,65,0.00,,---,0.00,VWS V14.01,2013-02-02 19:47:00,
2013-02-02 13:52:00,13.8,4.2,30.12,SE,135,0.0,1.6,65,0.00,,---,0.00,VWS V14.01,2013-02-02 19:52:00,
2013-02-02 13:57:00,13.3,3.7,30.12,SW,225,3.1,3.1,65,0.00,,---,0.00,VWS V14.01,2013-02-02 19:57:00,
2013-02-02 14:02:00,12.9,3.4,30.12,SSE,158,3.4,4.0,65,0.00,,---,0.00,VWS V14.01,2013-02-02 20:02:00,
2013-02-02 14:07:00,12.7,3.2,30.12,SSE,158,0.0,0.9,65,0.00,,---,0.00,VWS V14.01,2013-02-02 20:07:00,
2013-02-02 14:12:00,12.6,3.0,30.12,NW,315,1.3,2.5,65,0.00,,---,0.00,VWS V14.01,2013-02-02 20:12:00,
2013-02-02 14:17:00,12.6,3.0,30.12,SSE,158,2.5,4.0,65,0.00,,---,0.00,VWS V14.01,2013-02-02 20:17:00,
2013-02-02 14:22:00,12.2,2.7,30.12,SSW,202,2.0,2.5,65,0.00,,---,0.00,VWS V14.01,2013-02-02 20:22:00,
2013-02-02 14:27:00,12.4,2.9,30.09,South,180,2.2,4.0,65,0.00,,---,0.00,VWS V14.01,2013-02-02 20:27:00,
2013-02-02 14:32:00,12.6,3.0,30.09,SE,135,2.2,2.9,65,0.00,,---,0.00,VWS V14.01,2013-02-02 20:32:00,
2013-02-02 14:37:00,12.6,3.0,30.09,SE,135,0.0,2.5,65,0.00,,---,0.00,VWS V14.01,2013-02-02 20:37:00,
2013-02-02 14:43:00,12.4,2.9,30.09,East,90,3.4,3.4,65,0.00,,---,0.00,VWS V14.01,2013-02-02 20:43:00,
2013-02-02 14:47:00,12.0,2.5,30.09,West,270,1.1,2.5,65,0.00,,---,0.00,VWS V14.01,2013-02-02 20:47:00,
2013-02-02 14:53:00,12.0,2.5,30.09,South,180,4.0,4.0,65,0.00,,---,0.00,VWS V14.01,2013-02-02 20:53:00,
2013-02-02 14:58:00,12.0,2.5,30.09,South,180,1.6,2.5,65,0.00,,---,0.00,VWS V14.01,2013-02-02 20:58:00,
2013-02-02 15:03:00,12.0,2.5,30.09,West,270,1.1,2.5,65,0.00,,---,0.00,VWS V14.01,2013-02-02 21:03:00,
2013-02-02 15:08:00,11.8,2.4,30.09,South,180,0.0,0.0,65,0.00,,---,0.00,VWS V14.01,2013-02-02 21:08:00,
2013-02-02 15:13:00,11.7,2.2,30.09,NW,315,1.6,1.6,65,0.00,,---,0.00,VWS V14.01,2013-02-02 21:13:00,
2013-02-02 15:18:00,11.5,2.0,30.09,South,180,2.7,2.7,65,0.00,,---,0.00,VWS V14.01,2013-02-02 21:18:00,
2013-02-02 15:23:00,11.3,1.8,30.09,SSW,202,2.2,2.7,65,0.00,,---,0.00,VWS V14.01,2013-02-02 21:23:00,
2013-02-02 15:28:00,11.3,1.8,30.09,South,180,2.7,2.7,65,0.00,,---,0.00,VWS V14.01,2013-02-02 21:28:00,
2013-02-02 15:33:00,11.3,1.8,30.09,South,180,1.1,1.1,65,0.00,,---,0.00,VWS V14.01,2013-02-02 21:33:00,
2013-02-02 15:38:00,11.1,1.7,30.09,WNW,292,2.9,3.8,65,0.00,,---,0.00,VWS V14.01,2013-02-02 21:38:00,
2013-02-02 15:43:00,11.1,1.7,30.06,South,180,5.4,5.4,65,0.00,,---,0.00,VWS V14.01,2013-02-02 21:43:00,
2013-02-02 15:48:00,10.9,1.5,30.06,ESE,112,2.2,2.2,65,0.00,,---,0.00,VWS V14.01,2013-02-02 21:48:00,
2013-02-02 15:53:00,10.8,1.3,30.06,SE,135,2.9,2.9,65,0.00,,---,0.00,VWS V14.01,2013-02-02 21:53:00,
2013-02-02 15:58:00,10.9,1.5,30.06,ESE,112,2.0,2.0,65,0.00,,---,0.00,VWS V14.01,2013-02-02 21:58:00,
2013-02-02 16:03:00,10.9,1.5,30.06,ESE,112,2.5,2.5,65,0.00,,---,0.00,VWS V14.01,2013-02-02 22:03:00,
2013-02-02 16:08:00,10.8,1.3,30.06,South,180,3.6,3.6,65,0.00,,---,0.00,VWS V14.01,2013-02-02 22:08:00,
2013-02-02 16:13:00,10.8,1.3,30.06,SE,135,0.0,2.2,65,0.00,,---,0.00,VWS V14.01,2013-02-02 22:13:00,
2013-02-02 16:18:00,10.6,1.1,30.06,West,270,2.2,2.5,65,0.00,,---,0.00,VWS V14.01,2013-02-02 22:18:00,
2013-02-02 16:23:00,10.6,1.1,30.06,SSW,202,1.6,3.1,65,0.00,,---,0.00,VWS V14.01,2013-02-02 22:23:00,
2013-02-02 16:28:00,10.6,1.1,30.06,South,180,2.5,2.5,65,0.00,,---,0.00,VWS V14.01,2013-02-02 22:28:00,
2013-02-02 16:33:00,10.6,1.1,30.06,SSE,158,3.1,3.1,65,0.00,,---,0.00,VWS V14.01,2013-02-02 22:33:00,
2013-02-02 16:38:00,10.4,1.0,30.06,SSE,158,0.0,0.0,65,0.00,,---,0.00,VWS V14.01,2013-02-02 22:38:00,
2013-02-02 16:43:00,10.4,1.0,30.06,SSW,202,3.4,3.4,65,0.00,,---,0.00,VWS V14.01,2013-02-02 22:43:00,
2013-02-02 16:48:00,10.4,1.0,30.06,SSW,202,1.1,1.6,65,0.00,,---,0.00,VWS V14.01,2013-02-02 22:48:00,
2013-02-02 16:53:00,10.4,1.0,30.06,SE,135,0.0,0.0,65,0.00,,---,0.00,VWS V14.01,2013-02-02 22:53:00,
2013-02-02 16:58:00,10.4,1.0,30.06,South,180,1.1,1.1,65,0.00,,---,0.00,VWS V14.01,2013-02-02 22:58:00,
2013-02-02 17:03:00,10.2,0.8,30.06,SSE,158,1.6,2.5,65,0.00,,---,0.00,VWS V14.01,2013-02-02 23:03:00,
2013-02-02 17:08:00,10.0,0.6,30.06,NNW,338,0.0,2.5,65,0.00,,---,0.00,VWS V14.01,2013-02-02 23:08:00,
2013-02-02 17:13:00,10.0,0.6,30.06,South,180,1.3,1.6,65,0.00,,---,0.00,VWS V14.01,2013-02-02 23:13:00,
2013-02-02 17:18:00,10.0,0.6,30.06,SW,225,0.0,0.0,65,0.00,,---,0.00,VWS V14.01,2013-02-02 23:18:00,
2013-02-02 17:23:00,9.9,0.5,30.06,South,180,2.9,2.9,65,0.00,,---,0.00,VWS V14.01,2013-02-02 23:23:00,
2013-02-02 17:28:00,9.9,0.5,30.06,South,180,2.0,2.2,65,0.00,,---,0.00,VWS V14.01,2013-02-02 23:28:00,
2013-02-02 17:33:00,9.9,0.5,30.06,SE,135,2.2,2.5,65,0.00,,---,0.00,VWS V14.01,2013-02-02 23:33:00,
2013-02-02 17:38:00,10.0,0.6,30.06,SE,135,0.0,2.2,65,0.00,,---,0.00,VWS V14.01,2013-02-02 23:38:00,
2013-02-02 17:43:00,10.0,0.6,30.03,South,180,2.7,2.7,65,0.00,,---,0.00,VWS V14.01,2013-02-02 23:43:00,
2013-02-02 17:48:00,10.0,0.6,30.03,SSE,158,2.0,2.9,65,0.00,,---,0.00,VWS V14.01,2013-02-02 23:48:00,
2013-02-02 17:53:00,10.0,0.6,30.03,ESE,112,2.0,4.0,65,0.00,,---,0.00,VWS V14.01,2013-02-02 23:53:00,
2013-02-02 17:58:00,9.9,0.5,30.03,WNW,292,1.3,2.5,65,0.00,,---,0.00,VWS V14.01,2013-02-02 23:58:00,
2013-02-02 18:03:00,9.9,0.5,30.03,SSE,158,2.0,2.0,65,0.00,,---,0.00,VWS V14.01,2013-02-03 00:03:00,
2013-02-02 18:08:00,9.9,0.5,30.03,WSW,248,1.6,3.4,65,0.00,,---,0.00,VWS V14.01,2013-02-03 00:08:00,
2013-02-02 18:13:00,9.7,0.3,30.06,South,180,2.7,2.7,65,0.00,,---,0.00,VWS V14.01,2013-02-03 00:13:00,
2013-02-02 18:18:00,9.7,0.3,30.06,NW,315,2.2,2.9,65,0.00,,---,0.00,VWS V14.01,2013-02-03 00:18:00,
2013-02-02 18:23:00,9.7,0.3,30.06,South,180,2.0,2.2,65,0.00,,---,0.00,VWS V14.01,2013-02-03 00:23:00,
2013-02-02 18:28:00,9.7,0.3,30.06,SSE,158,2.2,3.6,65,0.00,,---,0.00,VWS V14.01,2013-02-03 00:28:00,
2013-02-02 18:33:00,9.5,0.1,30.06,South,180,1.6,3.4,65,0.00,,---,0.00,VWS V14.01,2013-02-03 00:33:00,
2013-02-02 18:38:00,9.5,0.1,30.06,South,180,3.4,3.4,65,0.00,,---,0.00,VWS V14.01,2013-02-03 00:38:00,
2013-02-02 18:43:00,9.5,0.1,30.03,South,180,2.9,2.9,65,0.00,,---,0.00,VWS V14.01,2013-02-03 00:43:00,
2013-02-02 18:48:00,9.3,-0.1,30.03,South,180,2.2,2.2,65,0.00,,---,0.00,VWS V14.01,2013-02-03 00:48:00,
2013-02-02 18:53:00,9.5,0.1,30.03,SE,135,2.0,2.0,65,0.00,,---,0.00,VWS V14.01,2013-02-03 00:53:00,
2013-02-02 18:58:00,9.5,0.1,30.03,SE,135,0.0,2.0,65,0.00,,---,0.00,VWS V14.01,2013-02-03 00:58:00,
2013-02-02 19:03:00,9.5,0.1,30.03,ENE,68,2.7,2.7,65,0.00,,---,0.00,VWS V14.01,2013-02-03 01:03:00,
2013-02-02 19:08:00,9.3,-0.1,30.03,SSE,158,2.7,3.6,65,0.00,,---,0.00,VWS V14.01,2013-02-03 01:08:00,
2013-02-02 19:13:00,9.3,-0.1,30.03,SSW,202,2.7,2.7,65,0.00,,---,0.00,VWS V14.01,2013-02-03 01:13:00,
2013-02-02 19:18:00,9.3,-0.1,30.03,South,180,1.6,2.9,65,0.00,,---,0.00,VWS V14.01,2013-02-03 01:18:00,
2013-02-02 19:23:00,9.3,-0.1,30.03,SSE,158,1.6,2.0,65,0.00,,---,0.00,VWS V14.01,2013-02-03 01:23:00,
2013-02-02 19:28:00,9.3,-0.1,30.03,South,180,0.9,2.7,65,0.00,,---,0.00,VWS V14.01,2013-02-03 01:28:00,
2013-02-02 19:33:00,9.3,-0.1,30.03,South,180,1.3,2.5,65,0.00,,---,0.00,VWS V14.01,2013-02-03 01:33:00,
2013-02-02 19:38:00,9.3,-0.1,30.03,SSE,158,2.2,2.7,65,0.00,,---,0.00,VWS V14.01,2013-02-03 01:38:00,
2013-02-02 19:44:00,9.1,-0.2,30.03,SE,135,0.0,0.0,65,0.00,,---,0.00,VWS V14.01,2013-02-03 01:44:00,
2013-02-02 19:49:00,9.1,-0.2,30.03,SSE,158,1.6,1.6,65,0.00,,---,0.00,VWS V14.01,2013-02-03 01:49:00,
2013-02-02 19:54:00,9.1,-0.2,30.03,ESE,112,1.6,3.1,65,0.00,,---,0.00,VWS V14.01,2013-02-03 01:54:00,
2013-02-02 19:59:00,9.1,-0.2,30.00,East,90,1.6,2.9,65,0.00,,---,0.00,VWS V14.01,2013-02-03 01:59:00,
2013-02-02 20:04:00,9.1,-0.2,30.00,SSE,158,0.9,1.3,65,0.00,,---,0.00,VWS V14.01,2013-02-03 02:04:00,
2013-02-02 20:09:00,9.0,-0.4,30.00,SE,135,0.0,0.0,65,0.00,,---,0.00,VWS V14.01,2013-02-03 02:09:00,
2013-02-02 20:14:00,9.0,-0.4,30.00,SSE,158,0.0,0.0,65,0.00,,---,0.00,VWS V14.01,2013-02-03 02:14:00,
2013-02-02 20:19:00,9.0,-0.4,30.00,South,180,1.6,1.6,65,0.00,,---,0.00,VWS V14.01,2013-02-03 02:19:00,
2013-02-02 20:24:00,9.0,-0.4,30.00,SSE,158,2.0,2.0,65,0.00,,---,0.00,VWS V14.01,2013-02-03 02:24:00,
2013-02-02 20:29:00,8.8,-0.6,30.00,East,90,2.0,2.5,65,0.00,,---,0.00,VWS V14.01,2013-02-03 02:29:00,
2013-02-02 20:34:00,8.8,-0.6,30.00,SE,135,1.3,1.3,65,0.00,,---,0.00,VWS V14.01,2013-02-03 02:34:00,
2013-02-02 20:39:00,8.8,-0.6,30.00,SE,135,2.0,2.2,65,0.00,,---,0.00,VWS V14.01,2013-02-03 02:39:00,
2013-02-02 20:44:00,8.8,-0.6,30.00,ESE,112,0.0,2.0,65,0.00,,---,0.00,VWS V14.01,2013-02-03 02:44:00,
2013-02-02 20:49:00,8.8,-0.6,30.00,East,90,0.0,0.0,65,0.00,,---,0.00,VWS V14.01,2013-02-03 02:49:00,
2013-02-02 20:54:00,8.8,-0.6,30.00,SE,135,1.3,1.3,65,0.00,,---,0.00,VWS V14.01,2013-02-03 02:54:00,
2013-02-02 20:59:00,8.8,-0.6,30.00,ESE,112,0.0,0.0,65,0.00,,---,0.00,VWS V14.01,2013-02-03 02:59:00,
2013-02-02 21:04:00,8.8,-0.6,30.00,South,180,2.5,2.5,65,0.00,,---,0.00,VWS V14.01,2013-02-03 03:04:00,
2013-02-02 21:09:00,9.0,-0.4,30.00,ESE,112,0.0,0.0,65,0.00,,---,0.00,VWS V14.01,2013-02-03 03:09:00,
2013-02-02 21:14:00,9.0,-0.4,30.00,ESE,112,0.0,0.0,65,0.00,,---,0.00,VWS V14.01,2013-02-03 03:14:00,
2013-02-02 21:19:00,9.1,-0.2,30.00,SE,135,0.0,0.0,65,0.00,,---,0.00,VWS V14.01,2013-02-03 03:19:00,
2013-02-02 21:24:00,9.1,-0.2,30.00,ENE,68,0.0,0.0,65,0.00,,---,0.00,VWS V14.01,2013-02-03 03:24:00,
2013-02-02 21:29:00,9.1,-0.2,30.00,ESE,112,0.0,0.0,65,0.00,,---,0.00,VWS V14.01,2013-02-03 03:29:00,
2013-02-02 21:34:00,9.1,-0.2,30.00,ENE,68,0.0,0.0,65,0.00,,---,0.00,VWS V14.01,2013-02-03 03:34:00,
2013-02-02 21:39:00,9.3,-0.1,30.00,ENE,68,0.0,0.0,65,0.00,,---,0.00,VWS V14.01,2013-02-03 03:39:00,
2013-02-02 21:44:00,9.3,-0.1,30.00,ESE,112,0.0,0.0,65,0.00,,---,0.00,VWS V14.01,2013-02-03 03:44:00,
2013-02-02 21:49:00,9.3,-0.1,30.00,SE,135,0.0,0.0,65,0.00,,---,0.00,VWS V14.01,2013-02-03 03:49:00,
2013-02-02 21:54:00,9.3,-0.1,30.00,SSE,158,0.0,1.1,65,0.00,,---,0.00,VWS V14.01,2013-02-03 03:54:00,
2013-02-02 21:59:00,9.3,-0.1,30.00,SSE,158,1.1,1.3,65,0.00,,---,0.00,VWS V14.01,2013-02-03 03:59:00,
2013-02-02 22:04:00,9.5,0.1,30.00,ESE,112,0.0,1.3,65,0.00,,---,0.00,VWS V14.01,2013-02-03 04:04:00,
2013-02-02 22:09:00,9.5,0.1,30.00,SSE,158,0.0,1.3,65,0.00,,---,0.00,VWS V14.01,2013-02-03 04:09:00,
2013-02-02 22:14:00,9.5,0.1,30.00,SSW,202,0.0,0.0,65,0.00,,---,0.00,VWS V14.01,2013-02-03 04:14:00,
2013-02-02 22:19:00,9.5,0.1,30.00,SSE,158,0.0,0.0,65,0.00,,---,0.00,VWS V14.01,2013-02-03 04:19:00,
2013-02-02 22:24:00,9.5,0.1,30.00,SSE,158,0.0,0.0,65,0.00,,---,0.00,VWS V14.01,2013-02-03 04:24:00,
2013-02-02 22:29:00,9.7,0.3,30.00,SE,135,0.0,0.0,65,0.00,,---,0.00,VWS V14.01,2013-02-03 04:29:00,
2013-02-02 22:34:00,9.7,0.3,30.00,SE,135,0.0,0.0,65,0.00,,---,0.00,VWS V14.01,2013-02-03 04:34:00,
2013-02-02 22:40:00,9.7,0.3,30.00,SE,135,0.0,0.0,65,0.00,,---,0.00,VWS V14.01,2013-02-03 04:40:00,
2013-02-02 22:45:00,9.7,0.3,30.00,ESE,112,0.0,0.0,65,0.00,,---,0.00,VWS V14.01,2013-02-03 04:45:00,
2013-02-02 22:50:00,9.7,0.3,30.00,ESE,112,0.0,0.0,65,0.00,,---,0.00,VWS V14.01,2013-02-03 04:50:00,
2013-02-02 22:55:00,9.7,0.3,30.00,ESE,112,0.0,0.0,65,0.00,,---,0.00,VWS V14.01,2013-02-03 04:55:00,
2013-02-02 23:00:00,9.7,0.3,30.00,ESE,112,0.0,0.0,65,0.00,,---,0.00,VWS V14.01,2013-02-03 05:00:00,
2013-02-02 23:01:00,9.7,0.3,30.00,ESE,112,0.0,0.0,65,0.00,,---,0.00,VWS V14.01,2013-02-03 05:01:00,
2013-02-02 23:03:00,9.7,0.3,30.00,ENE,68,0.0,0.0,65,0.00,,---,0.00,VWS V14.01,2013-02-03 05:03:00,
2013-02-02 23:08:00,9.7,0.3,30.00,ENE,68,0.0,0.0,65,0.00,,---,0.00,VWS V14.01,2013-02-03 05:08:00,
2013-02-02 23:13:00,9.7,0.3,30.00,ENE,68,0.0,0.0,65,0.00,,---,0.00,VWS V14.01,2013-02-03 05:13:00,
2013-02-02 23:18:00,9.9,0.5,30.00,ENE,68,0.0,0.0,65,0.00,,---,0.00,VWS V14.01,2013-02-03 05:18:00,
2013-02-02 23:23:00,9.9,0.5,30.00,ENE,68,0.0,0.0,65,0.00,,---,0.00,VWS V14.01,2013-02-03 05:23:00,
2013-02-02 23:28:00,9.9,0.5,30.00,NE,45,0.0,0.0,65,0.00,,---,0.00,VWS V14.01,2013-02-03 05:28:00,
2013-02-02 23:33:00,9.9,0.5,30.00,NE,45,0.0,0.0,65,0.00,,---,0.00,VWS V14.01,2013-02-03 05:33:00,
2013-02-02 23:38:00,9.9,0.5,30.00,NE,45,0.0,0.0,65,0.00,,---,0.00,VWS V14.01,2013-02-03 05:38:00,
2013-02-02 23:43:00,9.9,0.5,30.00,NE,45,0.0,0.0,65,0.00,,---,0.00,VWS V14.01,2013-02-03 05:43:00,
2013-02-02 23:48:00,9.9,0.5,30.00,NE,45,0.0,0.0,65,0.00,,---,0.00,VWS V14.01,2013-02-03 05:48:00,
2013-02-02 23:53:00,9.9,0.5,30.00,NE,45,0.0,0.0,65,0.00,,---,0.00,VWS V14.01,2013-02-03 05:53:00,
2013-02-02 23:58:00,9.9,0.5,30.00,NE,45,0.0,0.0,65,0.00,,---,0.00,VWS V14.01,2013-02-03 05:58:00,